sensor_id;sensor_type;location;lat;lon;timestamp;pressure;altitude;pressure_sealevel;temperature;humidity
60974;BME280;46846;51.528;5.076;2023-06-10T00:02:21;100853.19;;;26.89;35.33
60974;BME280;46846;51.528;5.076;2023-06-10T00:04:46;100855.59;;;26.93;35.09
60974;BME280;46846;51.528;5.076;2023-06-10T00:07:12;100846.00;;;26.88;35.18
60974;BME280;46846;51.528;5.076;2023-06-10T00:09:38;100851.06;;;26.83;35.23
60974;BME280;46846;51.528;5.076;2023-06-10T00:12:05;100850.03;;;26.84;35.30
60974;BME280;46846;51.528;5.076;2023-06-10T00:14:32;100847.47;;;26.83;35.27
60974;BME280;46846;51.528;5.076;2023-06-10T00:16:57;100846.09;;;26.79;35.35
60974;BME280;46846;51.528;5.076;2023-06-10T00:19:23;100853.75;;;26.75;35.09
60974;BME280;46846;51.528;5.076;2023-06-10T00:21:51;100853.75;;;26.75;35.39
60974;BME280;46846;51.528;5.076;2023-06-10T00:24:17;100851.31;;;26.72;35.12
60974;BME280;46846;51.528;5.076;2023-06-10T00:26:43;100859.16;;;26.67;35.15
60974;BME280;46846;51.528;5.076;2023-06-10T00:29:09;100849.94;;;26.68;34.89
60974;BME280;46846;51.528;5.076;2023-06-10T00:31:35;100848.84;;;26.60;35.02
60974;BME280;46846;51.528;5.076;2023-06-10T00:34:01;100847.16;;;26.59;35.48
60974;BME280;46846;51.528;5.076;2023-06-10T00:36:27;100849.47;;;26.54;35.43
60974;BME280;46846;51.528;5.076;2023-06-10T00:38:53;100846.75;;;26.54;35.58
60974;BME280;46846;51.528;5.076;2023-06-10T00:41:19;100851.47;;;26.44;35.74
60974;BME280;46846;51.528;5.076;2023-06-10T00:43:44;100855.91;;;26.45;35.25
60974;BME280;46846;51.528;5.076;2023-06-10T00:46:11;100854.88;;;26.46;35.14
60974;BME280;46846;51.528;5.076;2023-06-10T00:48:38;100854.66;;;26.39;35.55
60974;BME280;46846;51.528;5.076;2023-06-10T00:51:05;100846.28;;;26.41;35.27
60974;BME280;46846;51.528;5.076;2023-06-10T00:53:31;100851.69;;;26.32;35.52
60974;BME280;46846;51.528;5.076;2023-06-10T00:55:57;100856.03;;;26.25;35.65
60974;BME280;46846;51.528;5.076;2023-06-10T00:58:24;100845.72;;;26.19;35.72
60974;BME280;46846;51.528;5.076;2023-06-10T01:00:50;100848.78;;;26.16;35.84
60974;BME280;46846;51.528;5.076;2023-06-10T01:03:16;100850.81;;;26.14;36.08
60974;BME280;46846;51.528;5.076;2023-06-10T01:05:42;100848.94;;;26.14;36.05
60974;BME280;46846;51.528;5.076;2023-06-10T01:10:57;100847.81;;;26.07;35.97
60974;BME280;46846;51.528;5.076;2023-06-10T01:13:22;100853.75;;;26.02;35.99
60974;BME280;46846;51.528;5.076;2023-06-10T01:15:54;100852.34;;;25.98;36.21
60974;BME280;46846;51.528;5.076;2023-06-10T01:18:20;100854.06;;;25.99;36.01
60974;BME280;46846;51.528;5.076;2023-06-10T01:20:47;100853.81;;;25.92;35.97
60974;BME280;46846;51.528;5.076;2023-06-10T01:23:14;100853.81;;;25.92;36.19
60974;BME280;46846;51.528;5.076;2023-06-10T01:25:49;100852.41;;;25.88;36.07
60974;BME280;46846;51.528;5.076;2023-06-10T01:32:09;100852.34;;;25.80;36.26
60974;BME280;46846;51.528;5.076;2023-06-10T01:34:27;100848.03;;;25.77;36.31
60974;BME280;46846;51.528;5.076;2023-06-10T01:36:55;100856.22;;;25.77;36.00
60974;BME280;46846;51.528;5.076;2023-06-10T01:39:23;100857.69;;;25.72;36.51
60974;BME280;46846;51.528;5.076;2023-06-10T01:41:49;100854.66;;;25.75;35.90
60974;BME280;46846;51.528;5.076;2023-06-10T01:44:20;100860.97;;;25.75;36.12
60974;BME280;46846;51.528;5.076;2023-06-10T01:46:46;100851.84;;;25.66;36.15
60974;BME280;46846;51.528;5.076;2023-06-10T01:49:12;100858.38;;;25.74;35.83
60974;BME280;46846;51.528;5.076;2023-06-10T01:51:37;100851.28;;;25.63;36.16
60974;BME280;46846;51.528;5.076;2023-06-10T01:54:02;100856.03;;;25.61;36.09
60974;BME280;46846;51.528;5.076;2023-06-10T01:56:28;100857.00;;;25.60;35.84
60974;BME280;46846;51.528;5.076;2023-06-10T01:58:53;100864.22;;;25.51;36.44
60974;BME280;46846;51.528;5.076;2023-06-10T02:01:24;100859.34;;;25.55;36.36
60974;BME280;46846;51.528;5.076;2023-06-10T02:03:50;100861.50;;;25.51;36.10
60974;BME280;46846;51.528;5.076;2023-06-10T02:06:15;100862.38;;;25.51;36.33
60974;BME280;46846;51.528;5.076;2023-06-10T02:08:41;100861.63;;;25.49;36.36
60974;BME280;46846;51.528;5.076;2023-06-10T02:11:06;100867.94;;;25.50;36.10
60974;BME280;46846;51.528;5.076;2023-06-10T02:13:32;100860.78;;;25.49;36.20
60974;BME280;46846;51.528;5.076;2023-06-10T02:15:57;100859.63;;;25.51;35.90
60974;BME280;46846;51.528;5.076;2023-06-10T02:18:23;100860.38;;;25.44;36.13
60974;BME280;46846;51.528;5.076;2023-06-10T02:20:48;100862.09;;;25.45;36.09
60974;BME280;46846;51.528;5.076;2023-06-10T02:23:14;100869.16;;;25.37;36.17
60974;BME280;46846;51.528;5.076;2023-06-10T02:25:39;100862.72;;;25.29;36.20
60974;BME280;46846;51.528;5.076;2023-06-10T02:28:05;100861.91;;;25.18;36.56
60974;BME280;46846;51.528;5.076;2023-06-10T02:30:31;100863.19;;;25.14;36.47
60974;BME280;46846;51.528;5.076;2023-06-10T02:32:56;100867.66;;;25.15;36.62
60974;BME280;46846;51.528;5.076;2023-06-10T02:35:21;100867.22;;;25.10;36.54
60974;BME280;46846;51.528;5.076;2023-06-10T02:37:49;100869.19;;;25.18;36.44
60974;BME280;46846;51.528;5.076;2023-06-10T02:40:15;100866.69;;;25.06;36.38
60974;BME280;46846;51.528;5.076;2023-06-10T02:42:41;100872.38;;;25.13;36.49
60974;BME280;46846;51.528;5.076;2023-06-10T02:45:07;100868.25;;;25.09;36.39
60974;BME280;46846;51.528;5.076;2023-06-10T02:47:32;100865.53;;;25.09;36.50
60974;BME280;46846;51.528;5.076;2023-06-10T02:49:58;100872.84;;;24.98;36.58
60974;BME280;46846;51.528;5.076;2023-06-10T02:52:24;100864.56;;;24.90;36.57
60974;BME280;46846;51.528;5.076;2023-06-10T02:54:50;100862.97;;;24.88;36.88
60974;BME280;46846;51.528;5.076;2023-06-10T02:57:15;100863.28;;;24.84;36.69
60974;BME280;46846;51.528;5.076;2023-06-10T02:59:41;100860.69;;;24.83;36.81
60974;BME280;46846;51.528;5.076;2023-06-10T03:02:06;100869.28;;;24.88;36.88
60974;BME280;46846;51.528;5.076;2023-06-10T03:04:32;100865.56;;;24.89;36.83
60974;BME280;46846;51.528;5.076;2023-06-10T03:06:58;100864.88;;;24.87;36.82
60974;BME280;46846;51.528;5.076;2023-06-10T03:09:25;100874.75;;;24.88;36.70
60974;BME280;46846;51.528;5.076;2023-06-10T03:11:51;100874.44;;;24.91;36.91
60974;BME280;46846;51.528;5.076;2023-06-10T03:14:16;100870.00;;;24.80;36.87
60974;BME280;46846;51.528;5.076;2023-06-10T03:16:42;100872.59;;;24.82;36.69
60974;BME280;46846;51.528;5.076;2023-06-10T03:19:08;100873.00;;;24.67;36.74
60974;BME280;46846;51.528;5.076;2023-06-10T03:21:34;100877.44;;;24.68;36.80
60974;BME280;46846;51.528;5.076;2023-06-10T03:24:00;100876.75;;;24.66;36.99
60974;BME280;46846;51.528;5.076;2023-06-10T03:26:26;100878.88;;;24.63;36.93
60974;BME280;46846;51.528;5.076;2023-06-10T03:28:52;100885.34;;;24.62;36.97
60974;BME280;46846;51.528;5.076;2023-06-10T03:31:18;100879.19;;;24.60;36.92
60974;BME280;46846;51.528;5.076;2023-06-10T03:33:43;100884.19;;;24.54;37.01
60974;BME280;46846;51.528;5.076;2023-06-10T03:36:09;100890.78;;;24.52;36.86
60974;BME280;46846;51.528;5.076;2023-06-10T03:38:35;100887.06;;;24.53;37.07
60974;BME280;46846;51.528;5.076;2023-06-10T03:41:00;100884.91;;;24.47;37.34
60974;BME280;46846;51.528;5.076;2023-06-10T03:43:26;100893.78;;;24.39;37.19
60974;BME280;46846;51.528;5.076;2023-06-10T03:45:52;100892.91;;;24.28;37.18
60974;BME280;46846;51.528;5.076;2023-06-10T03:48:18;100893.63;;;24.30;37.22
60974;BME280;46846;51.528;5.076;2023-06-10T03:50:43;100887.91;;;24.24;37.02
60974;BME280;46846;51.528;5.076;2023-06-10T03:53:09;100896.22;;;24.22;37.55
60974;BME280;46846;51.528;5.076;2023-06-10T03:55:34;100892.63;;;24.22;37.42
60974;BME280;46846;51.528;5.076;2023-06-10T03:58:01;100892.19;;;24.16;37.47
60974;BME280;46846;51.528;5.076;2023-06-10T04:00:27;100895.06;;;24.15;37.61
60974;BME280;46846;51.528;5.076;2023-06-10T04:02:52;100893.88;;;24.17;37.54
60974;BME280;46846;51.528;5.076;2023-06-10T04:05:19;100894.34;;;24.23;37.69
60974;BME280;46846;51.528;5.076;2023-06-10T04:07:47;100891.91;;;24.20;37.69
60974;BME280;46846;51.528;5.076;2023-06-10T04:10:14;100900.91;;;24.20;37.80
60974;BME280;46846;51.528;5.076;2023-06-10T04:12:41;100902.22;;;24.16;37.90
60974;BME280;46846;51.528;5.076;2023-06-10T04:15:07;100899.50;;;24.16;37.35
60974;BME280;46846;51.528;5.076;2023-06-10T04:17:33;100898.47;;;24.07;37.54
60974;BME280;46846;51.528;5.076;2023-06-10T04:19:58;100899.00;;;24.01;37.67
60974;BME280;46846;51.528;5.076;2023-06-10T04:22:24;100897.00;;;24.03;37.60
60974;BME280;46846;51.528;5.076;2023-06-10T04:24:49;100902.91;;;24.08;38.13
60974;BME280;46846;51.528;5.076;2023-06-10T04:27:15;100909.84;;;24.01;37.73
60974;BME280;46846;51.528;5.076;2023-06-10T04:29:40;100911.72;;;24.00;38.62
60974;BME280;46846;51.528;5.076;2023-06-10T04:32:06;100910.59;;;24.03;38.15
60974;BME280;46846;51.528;5.076;2023-06-10T04:34:35;100911.13;;;23.87;37.80
60974;BME280;46846;51.528;5.076;2023-06-10T04:37:01;100913.84;;;23.87;37.82
60974;BME280;46846;51.528;5.076;2023-06-10T04:39:26;100919.16;;;23.88;38.15
60974;BME280;46846;51.528;5.076;2023-06-10T04:41:52;100921.53;;;23.82;38.00
60974;BME280;46846;51.528;5.076;2023-06-10T04:44:18;100920.69;;;23.81;38.52
60974;BME280;46846;51.528;5.076;2023-06-10T04:46:44;100923.00;;;23.86;38.78
60974;BME280;46846;51.528;5.076;2023-06-10T04:49:09;100919.16;;;23.88;39.04
60974;BME280;46846;51.528;5.076;2023-06-10T04:51:35;100919.69;;;23.82;38.89
60974;BME280;46846;51.528;5.076;2023-06-10T04:54:01;100923.53;;;23.80;37.73
60974;BME280;46846;51.528;5.076;2023-06-10T04:56:30;100916.94;;;23.72;37.97
60974;BME280;46846;51.528;5.076;2023-06-10T04:58:58;100922.66;;;23.79;38.36
60974;BME280;46846;51.528;5.076;2023-06-10T05:01:24;100917.66;;;23.74;38.62
60974;BME280;46846;51.528;5.076;2023-06-10T05:03:50;100929.22;;;23.76;38.83
60974;BME280;46846;51.528;5.076;2023-06-10T05:06:15;100921.78;;;23.69;38.10
60974;BME280;46846;51.528;5.076;2023-06-10T05:08:41;100924.97;;;23.84;39.13
60974;BME280;46846;51.528;5.076;2023-06-10T05:11:06;100924.97;;;23.74;39.27
60974;BME280;46846;51.528;5.076;2023-06-10T05:13:32;100923.50;;;23.70;38.51
60974;BME280;46846;51.528;5.076;2023-06-10T05:15:57;100926.94;;;23.72;38.83
60974;BME280;46846;51.528;5.076;2023-06-10T05:18:23;100928.38;;;23.76;38.93
60974;BME280;46846;51.528;5.076;2023-06-10T05:20:48;100930.06;;;23.67;38.29
60974;BME280;46846;51.528;5.076;2023-06-10T05:23:14;100929.22;;;23.76;39.12
60974;BME280;46846;51.528;5.076;2023-06-10T05:25:40;100921.50;;;23.72;38.33
60974;BME280;46846;51.528;5.076;2023-06-10T05:28:06;100931.22;;;23.74;39.48
60974;BME280;46846;51.528;5.076;2023-06-10T05:30:35;100924.22;;;23.72;39.11
60974;BME280;46846;51.528;5.076;2023-06-10T05:33:00;100928.09;;;23.79;39.58
60974;BME280;46846;51.528;5.076;2023-06-10T05:35:26;100925.22;;;23.71;38.58
60974;BME280;46846;51.528;5.076;2023-06-10T05:37:51;100926.22;;;23.70;38.72
60974;BME280;46846;51.528;5.076;2023-06-10T05:40:17;100929.94;;;23.69;38.16
60974;BME280;46846;51.528;5.076;2023-06-10T05:42:42;100932.94;;;23.75;39.10
60974;BME280;46846;51.528;5.076;2023-06-10T05:45:08;100931.78;;;23.68;38.79
60974;BME280;46846;51.528;5.076;2023-06-10T05:47:33;100923.78;;;23.76;39.26
60974;BME280;46846;51.528;5.076;2023-06-10T05:49:59;100930.09;;;23.77;38.55
60974;BME280;46846;51.528;5.076;2023-06-10T05:52:25;100928.69;;;23.73;38.95
60974;BME280;46846;51.528;5.076;2023-06-10T05:54:51;100929.81;;;23.80;39.77
60974;BME280;46846;51.528;5.076;2023-06-10T05:57:16;100937.72;;;23.83;40.26
60974;BME280;46846;51.528;5.076;2023-06-10T05:59:42;100925.38;;;23.79;40.15
60974;BME280;46846;51.528;5.076;2023-06-10T06:02:07;100926.81;;;23.73;39.75
60974;BME280;46846;51.528;5.076;2023-06-10T06:04:33;100926.34;;;23.68;38.96
60974;BME280;46846;51.528;5.076;2023-06-10T06:06:59;100935.81;;;23.74;39.74
60974;BME280;46846;51.528;5.076;2023-06-10T06:09:24;100932.38;;;23.72;39.55
60974;BME280;46846;51.528;5.076;2023-06-10T06:11:50;100935.53;;;23.77;39.97
60974;BME280;46846;51.528;5.076;2023-06-10T06:14:15;100929.97;;;23.79;40.14
60974;BME280;46846;51.528;5.076;2023-06-10T06:16:40;100938.97;;;23.79;39.60
60974;BME280;46846;51.528;5.076;2023-06-10T06:19:06;100934.66;;;23.76;39.15
60974;BME280;46846;51.528;5.076;2023-06-10T06:21:31;100931.56;;;23.81;40.14
60974;BME280;46846;51.528;5.076;2023-06-10T06:23:57;100932.84;;;23.87;39.62
60974;BME280;46846;51.528;5.076;2023-06-10T06:26:23;100936.41;;;23.87;39.30
60974;BME280;46846;51.528;5.076;2023-06-10T06:28:48;100937.41;;;23.86;39.11
60974;BME280;46846;51.528;5.076;2023-06-10T06:31:14;100934.03;;;23.94;40.30
60974;BME280;46846;51.528;5.076;2023-06-10T06:33:39;100941.19;;;23.95;40.28
60974;BME280;46846;51.528;5.076;2023-06-10T06:36:05;100944.19;;;23.92;39.37
60974;BME280;46846;51.528;5.076;2023-06-10T06:38:30;100937.88;;;23.92;38.84
60974;BME280;46846;51.528;5.076;2023-06-10T06:40:56;100940.19;;;23.96;39.50
60974;BME280;46846;51.528;5.076;2023-06-10T06:43:21;100946.91;;;24.02;40.45
60974;BME280;46846;51.528;5.076;2023-06-10T06:45:47;100938.63;;;24.03;39.58
60974;BME280;46846;51.528;5.076;2023-06-10T06:48:12;100943.66;;;24.08;39.42
60974;BME280;46846;51.528;5.076;2023-06-10T06:50:38;100940.81;;;24.10;39.20
60974;BME280;46846;51.528;5.076;2023-06-10T06:53:04;100941.66;;;24.10;38.97
60974;BME280;46846;51.528;5.076;2023-06-10T06:55:29;100943.13;;;24.14;39.28
60974;BME280;46846;51.528;5.076;2023-06-10T06:57:55;100944.56;;;24.19;39.47
60974;BME280;46846;51.528;5.076;2023-06-10T07:00:21;100943.41;;;24.21;39.25
60974;BME280;46846;51.528;5.076;2023-06-10T07:02:46;100946.00;;;24.23;39.84
60974;BME280;46846;51.528;5.076;2023-06-10T07:05:12;100948.44;;;24.26;39.90
60974;BME280;46846;51.528;5.076;2023-06-10T07:07:37;100947.72;;;24.34;39.91
60974;BME280;46846;51.528;5.076;2023-06-10T07:10:03;100956.59;;;24.36;40.38
60974;BME280;46846;51.528;5.076;2023-06-10T07:12:28;100953.63;;;24.39;39.52
60974;BME280;46846;51.528;5.076;2023-06-10T07:14:54;100958.63;;;24.43;40.03
60974;BME280;46846;51.528;5.076;2023-06-10T07:17:19;100958.34;;;24.47;39.11
60974;BME280;46846;51.528;5.076;2023-06-10T07:19:45;100950.03;;;24.48;39.15
60974;BME280;46846;51.528;5.076;2023-06-10T07:22:11;100963.22;;;24.53;39.30
60974;BME280;46846;51.528;5.076;2023-06-10T07:24:36;100963.66;;;24.58;39.00
60974;BME280;46846;51.528;5.076;2023-06-10T07:27:01;100957.91;;;24.61;39.04
60974;BME280;46846;51.528;5.076;2023-06-10T07:29:27;100959.50;;;24.64;39.10
60974;BME280;46846;51.528;5.076;2023-06-10T07:31:52;100955.50;;;24.68;39.40
60974;BME280;46846;51.528;5.076;2023-06-10T07:34:18;100963.09;;;24.74;39.12
60974;BME280;46846;51.528;5.076;2023-06-10T07:36:44;100962.53;;;24.80;39.13
60974;BME280;46846;51.528;5.076;2023-06-10T07:39:09;100971.13;;;24.85;39.08
60974;BME280;46846;51.528;5.076;2023-06-10T07:41:35;100964.69;;;24.87;39.13
60974;BME280;46846;51.528;5.076;2023-06-10T07:44:00;100965.81;;;24.94;38.98
60974;BME280;46846;51.528;5.076;2023-06-10T07:46:26;100963.41;;;25.01;39.17
60974;BME280;46846;51.528;5.076;2023-06-10T07:48:53;100962.09;;;25.05;39.37
60974;BME280;46846;51.528;5.076;2023-06-10T07:51:18;100970.81;;;25.08;39.19
60974;BME280;46846;51.528;5.076;2023-06-10T07:53:44;100969.25;;;25.16;38.75
60974;BME280;46846;51.528;5.076;2023-06-10T07:56:09;100971.53;;;25.20;38.93
60974;BME280;46846;51.528;5.076;2023-06-10T07:58:35;100969.09;;;25.27;38.53
60974;BME280;46846;51.528;5.076;2023-06-10T08:01:00;100966.06;;;25.30;39.32
60974;BME280;46846;51.528;5.076;2023-06-10T08:03:26;100968.22;;;25.36;39.17
60974;BME280;46846;51.528;5.076;2023-06-10T08:05:51;100962.00;;;25.44;38.83
60974;BME280;46846;51.528;5.076;2023-06-10T08:08:16;100970.47;;;25.51;38.75
60974;BME280;46846;51.528;5.076;2023-06-10T08:10:42;100965.28;;;25.58;37.35
60974;BME280;46846;51.528;5.076;2023-06-10T08:13:08;100968.44;;;25.63;38.85
60974;BME280;46846;51.528;5.076;2023-06-10T08:15:33;100972.28;;;25.70;38.95
60974;BME280;46846;51.528;5.076;2023-06-10T08:17:59;100971.69;;;25.76;38.75
60974;BME280;46846;51.528;5.076;2023-06-10T08:20:24;100974.53;;;25.85;37.23
60974;BME280;46846;51.528;5.076;2023-06-10T08:22:50;100974.78;;;25.91;36.81
60974;BME280;46846;51.528;5.076;2023-06-10T08:25:15;100973.00;;;26.00;36.87
60974;BME280;46846;51.528;5.076;2023-06-10T08:27:41;100975.28;;;26.05;38.48
60974;BME280;46846;51.528;5.076;2023-06-10T08:30:07;100971.09;;;26.11;37.20
60974;BME280;46846;51.528;5.076;2023-06-10T08:32:33;100973.19;;;26.17;37.74
60974;BME280;46846;51.528;5.076;2023-06-10T08:34:58;100972.78;;;26.21;37.26
60974;BME280;46846;51.528;5.076;2023-06-10T08:37:24;100972.31;;;26.26;37.26
60974;BME280;46846;51.528;5.076;2023-06-10T08:39:49;100968.69;;;26.36;38.52
60974;BME280;46846;51.528;5.076;2023-06-10T08:44:40;100977.50;;;26.47;37.23
60974;BME280;46846;51.528;5.076;2023-06-10T08:47:17;100976.41;;;26.58;38.52
60974;BME280;46846;51.528;5.076;2023-06-10T08:49:46;100972.91;;;26.66;36.92
60974;BME280;46846;51.528;5.076;2023-06-10T08:52:18;100970.09;;;26.76;38.19
60974;BME280;46846;51.528;5.076;2023-06-10T08:57:15;100974.59;;;26.85;35.83
60974;BME280;46846;51.528;5.076;2023-06-10T08:59:43;100974.88;;;26.92;34.72
60974;BME280;46846;51.528;5.076;2023-06-10T09:02:08;100977.19;;;27.05;36.67
60974;BME280;46846;51.528;5.076;2023-06-10T09:04:34;100968.53;;;27.10;34.22
60974;BME280;46846;51.528;5.076;2023-06-10T09:07:02;100969.28;;;27.20;36.47
60974;BME280;46846;51.528;5.076;2023-06-10T09:09:28;100964.06;;;27.27;35.32
60974;BME280;46846;51.528;5.076;2023-06-10T09:11:55;100960.16;;;27.29;33.66
60974;BME280;46846;51.528;5.076;2023-06-10T09:14:21;100959.84;;;27.41;33.63
60974;BME280;46846;51.528;5.076;2023-06-10T09:16:46;100958.56;;;27.53;35.78
60974;BME280;46846;51.528;5.076;2023-06-10T09:19:14;100959.25;;;27.55;37.24
60974;BME280;46846;51.528;5.076;2023-06-10T09:21:40;100959.69;;;27.61;34.44
60974;BME280;46846;51.528;5.076;2023-06-10T09:24:06;100961.09;;;27.73;35.63
60974;BME280;46846;51.528;5.076;2023-06-10T09:26:31;100963.16;;;27.79;36.84
60974;BME280;46846;51.528;5.076;2023-06-10T09:29:07;100968.66;;;27.88;37.54
60974;BME280;46846;51.528;5.076;2023-06-10T09:31:39;100970.09;;;28.00;37.65
60974;BME280;46846;51.528;5.076;2023-06-10T09:34:09;100964.63;;;28.00;34.13
60974;BME280;46846;51.528;5.076;2023-06-10T09:36:36;100968.03;;;28.02;31.82
60974;BME280;46846;51.528;5.076;2023-06-10T09:39:02;100962.50;;;28.20;33.91
60974;BME280;46846;51.528;5.076;2023-06-10T09:41:41;100964.56;;;28.27;37.38
60974;BME280;46846;51.528;5.076;2023-06-10T09:44:17;100967.84;;;28.38;36.79
60974;BME280;46846;51.528;5.076;2023-06-10T09:46:45;100963.94;;;28.41;35.64
60974;BME280;46846;51.528;5.076;2023-06-10T09:49:10;100963.94;;;28.49;32.21
60974;BME280;46846;51.528;5.076;2023-06-10T09:51:35;100957.28;;;28.52;32.87
60974;BME280;46846;51.528;5.076;2023-06-10T09:54:04;100956.75;;;28.65;33.83
60974;BME280;46846;51.528;5.076;2023-06-10T09:56:34;100956.09;;;28.71;36.90
60974;BME280;46846;51.528;5.076;2023-06-10T09:59:00;100947.72;;;28.73;34.17
60974;BME280;46846;51.528;5.076;2023-06-10T10:01:25;100948.63;;;28.90;36.22
60974;BME280;46846;51.528;5.076;2023-06-10T10:03:51;100951.16;;;28.91;31.71
60974;BME280;46846;51.528;5.076;2023-06-10T10:06:18;100951.00;;;29.01;34.87
60974;BME280;46846;51.528;5.076;2023-06-10T10:08:49;100953.03;;;29.08;33.90
60974;BME280;46846;51.528;5.076;2023-06-10T10:11:17;100943.44;;;29.12;33.40
60974;BME280;46846;51.528;5.076;2023-06-10T10:13:48;100941.53;;;29.20;33.86
60974;BME280;46846;51.528;5.076;2023-06-10T10:16:19;100940.00;;;29.34;35.44
60974;BME280;46846;51.528;5.076;2023-06-10T10:18:53;100935.34;;;29.35;34.12
60974;BME280;46846;51.528;5.076;2023-06-10T10:21:22;100941.19;;;29.49;34.90
60974;BME280;46846;51.528;5.076;2023-06-10T10:24:00;100934.66;;;29.50;34.60
60974;BME280;46846;51.528;5.076;2023-06-10T10:26:27;100938.75;;;29.62;35.70
60974;BME280;46846;51.528;5.076;2023-06-10T10:29:10;100932.22;;;29.63;32.05
60974;BME280;46846;51.528;5.076;2023-06-10T10:31:37;100934.44;;;29.68;34.14
60974;BME280;46846;51.528;5.076;2023-06-10T10:34:10;100930.81;;;29.76;31.56
60974;BME280;46846;51.528;5.076;2023-06-10T10:36:38;100934.34;;;29.84;29.56
60974;BME280;46846;51.528;5.076;2023-06-10T10:39:04;100939.09;;;29.99;31.30
60974;BME280;46846;51.528;5.076;2023-06-10T10:41:31;100938.38;;;30.05;30.59
60974;BME280;46846;51.528;5.076;2023-06-10T10:43:58;100931.00;;;30.06;32.06
60974;BME280;46846;51.528;5.076;2023-06-10T10:46:24;100933.19;;;30.19;30.60
60974;BME280;46846;51.528;5.076;2023-06-10T10:48:53;100932.47;;;30.25;29.39
60974;BME280;46846;51.528;5.076;2023-06-10T10:51:19;100934.84;;;30.28;27.34
60974;BME280;46846;51.528;5.076;2023-06-10T10:54:11;100936.44;;;30.46;33.60
60974;BME280;46846;51.528;5.076;2023-06-10T10:56:37;100934.72;;;30.45;29.96
60974;BME280;46846;51.528;5.076;2023-06-10T10:59:06;100921.31;;;30.50;32.79
60974;BME280;46846;51.528;5.076;2023-06-10T11:01:42;100923.00;;;30.51;34.16
60974;BME280;46846;51.528;5.076;2023-06-10T11:04:11;100927.78;;;30.57;28.82
60974;BME280;46846;51.528;5.076;2023-06-10T11:06:36;100931.63;;;30.71;29.69
60974;BME280;46846;51.528;5.076;2023-06-10T11:09:25;100928.41;;;30.67;34.45
60974;BME280;46846;51.528;5.076;2023-06-10T11:11:51;100921.03;;;30.68;33.04
60974;BME280;46846;51.528;5.076;2023-06-10T11:14:29;100920.78;;;30.78;34.02
60974;BME280;46846;51.528;5.076;2023-06-10T11:16:58;100916.81;;;30.80;29.73
60974;BME280;46846;51.528;5.076;2023-06-10T11:19:37;100917.25;;;30.84;34.02
60974;BME280;46846;51.528;5.076;2023-06-10T11:22:06;100921.19;;;30.90;33.58
60974;BME280;46846;51.528;5.076;2023-06-10T11:24:32;100919.97;;;30.92;32.72
60974;BME280;46846;51.528;5.076;2023-06-10T11:27:20;100904.63;;;30.98;34.02
60974;BME280;46846;51.528;5.076;2023-06-10T11:32:32;100908.63;;;31.10;32.44
60974;BME280;46846;51.528;5.076;2023-06-10T11:34:58;100899.81;;;31.15;31.29
60974;BME280;46846;51.528;5.076;2023-06-10T11:37:23;100900.22;;;31.27;28.99
60974;BME280;46846;51.528;5.076;2023-06-10T11:39:55;100899.66;;;31.32;33.55
60974;BME280;46846;51.528;5.076;2023-06-10T11:42:24;100899.47;;;31.33;28.81
60974;BME280;46846;51.528;5.076;2023-06-10T11:44:51;100896.63;;;31.42;25.49
60974;BME280;46846;51.528;5.076;2023-06-10T11:47:17;100885.72;;;31.48;28.45
60974;BME280;46846;51.528;5.076;2023-06-10T11:49:43;100905.91;;;31.56;29.25
60974;BME280;46846;51.528;5.076;2023-06-10T11:52:09;100896.03;;;31.61;29.79
60974;BME280;46846;51.528;5.076;2023-06-10T11:54:36;100898.66;;;31.70;30.45
60974;BME280;46846;51.528;5.076;2023-06-10T11:57:01;100893.16;;;31.70;26.45
60974;BME280;46846;51.528;5.076;2023-06-10T11:59:28;100891.56;;;31.75;31.03
60974;BME280;46846;51.528;5.076;2023-06-10T12:01:55;100881.78;;;31.73;26.19
60974;BME280;46846;51.528;5.076;2023-06-10T12:04:20;100883.78;;;31.79;23.41
60974;BME280;46846;51.528;5.076;2023-06-10T12:06:51;100889.66;;;31.91;27.30
60974;BME280;46846;51.528;5.076;2023-06-10T12:09:19;100878.53;;;31.99;29.14
60974;BME280;46846;51.528;5.076;2023-06-10T12:11:45;100875.38;;;32.02;27.78
60974;BME280;46846;51.528;5.076;2023-06-10T12:14:10;100879.00;;;32.03;30.36
60974;BME280;46846;51.528;5.076;2023-06-10T12:16:36;100875.38;;;32.02;28.64
60974;BME280;46846;51.528;5.076;2023-06-10T12:19:05;100881.81;;;32.10;29.41
60974;BME280;46846;51.528;5.076;2023-06-10T12:21:33;100877.16;;;32.10;27.99
60974;BME280;46846;51.528;5.076;2023-06-10T12:24:10;100879.22;;;32.23;26.91
60974;BME280;46846;51.528;5.076;2023-06-10T12:26:39;100870.53;;;32.26;27.55
60974;BME280;46846;51.528;5.076;2023-06-10T12:34:41;100874.75;;;32.22;29.75
60974;BME280;46846;51.528;5.076;2023-06-10T12:37:10;100876.50;;;32.30;31.98
60974;BME280;46846;51.528;5.076;2023-06-10T12:39:39;100859.94;;;32.23;30.61
60974;BME280;46846;51.528;5.076;2023-06-10T12:42:05;100876.44;;;32.23;30.94
60974;BME280;46846;51.528;5.076;2023-06-10T12:44:38;100872.72;;;32.31;30.56
60974;BME280;46846;51.528;5.076;2023-06-10T12:47:08;100867.75;;;32.41;28.27
60974;BME280;46846;51.528;5.076;2023-06-10T12:49:35;100872.47;;;32.48;28.33
60974;BME280;46846;51.528;5.076;2023-06-10T12:52:00;100861.75;;;32.53;30.84
60974;BME280;46846;51.528;5.076;2023-06-10T12:54:26;100865.88;;;32.42;31.56
60974;BME280;46846;51.528;5.076;2023-06-10T12:56:51;100863.16;;;32.49;26.52
60974;BME280;46846;51.528;5.076;2023-06-10T12:59:18;100860.88;;;32.52;30.98
60974;BME280;46846;51.528;5.076;2023-06-10T13:01:43;100862.19;;;32.56;30.74
60974;BME280;46846;51.528;5.076;2023-06-10T13:04:09;100857.31;;;32.58;29.10
60974;BME280;46846;51.528;5.076;2023-06-10T13:06:35;100866.03;;;32.62;26.91
60974;BME280;46846;51.528;5.076;2023-06-10T13:09:04;100856.53;;;32.65;28.08